Terminal Aerodrome Forecast
Issued by NWS

Home | Current Version | Previous Version | Text Only | Print | Product List | Glossary On
Versions: 1 2 3 4 5 6 7 8 9 10 11 12 13 14 15 16
000
FTUS43 KABR 271300 AAA
TAFMBG
TAF AMD
KMBG 271306Z 2713/2812 25007KT P6SM BKN030
     FM271600 27010KT P6SM SKC
     FM280100 19005KT P6SM BKN100=

USA.gov is the U.S. government's official web portal to all federal, state and local government web resources and services.